Mount Ulla, NC (28125)

8:21 AM EDT on September 26, 2016 (GMT -0400)
Kiser Home | | Change Station

Elev 820 ft 35.63 °N, 80.75 °W | Updated 6 seconds ago

Rain
Rain
68.5 °F
Feels Like 68.5 °F
N
0.0
Wind Variable Wind from ESE
Gusts 0.0 mph

Today
High -- | Low -- °F
--% Chance of Precip.
Yesterday
High -- | Low -- °F
Precip. -- in
Pressure 30.12 in
Visibility 7.0 miles
Clouds Scattered Clouds 500 ft
Mostly Cloudy 800 ft
Overcast 3100 ft
Dew Point 68 °F
Humidity 98%
Rainfall 1.03 in
Snow Depth Not available.
7:14 AM 7:13 PM
Waning Crescent, 19% visible
METAR KRUQ 261205Z AUTO 17003KT 7SM SCT005 BKN008 OVC031 20/20 A3012 RMK AO2 T02010201
Pressure 30.12 in
Visibility 7.0 miles
Clouds Scattered Clouds 500 ft
Mostly Cloudy 800 ft
Overcast 3100 ft
Dew Point 68 °F
Humidity 98%
Rainfall 1.03 in
Snow Depth Not available.
7:14 AM 7:13 PM
Waning Crescent, 19% visible
METAR KRUQ 261205Z AUTO 17003KT 7SM SCT005 BKN008 OVC031 20/20 A3012 RMK AO2 T02010201

10-Day Weather Forecast

Almanac

Astronomy

Sep. 26, 2016 Rise Set
Actual Time
Civil Twilight
Nautical Twilight
Astronomical Twilight
Moon
Length of Visible Light
Length of Day
Tomorrow will be .
, % of the Moon is Illuminated

Today's Extremes

State Highs State Lows

Community

WunderPhotos

Upload Photos

1,941,863 photos uploaded!

WunderBlog® & News

Nearby

Air Quality

  Air Quality AQ Index Pollutant
Not available.

Snow Depth

Station Depth Elevation

Earthquake Activity

City Distance Mag. Time & Date
Minimum magnitude displayed is 2.5.

Coastal Water Temperatures

Place Temperature

Stations

Nearby Weather Stations

Station Location Temp. Windchill Dew Point Humidity Wind Precip. Elev Updated Type
                   

Watches & Warnings

There are currently no watches in effect.